0VA3 weather

Hunt Airport
Manquin, Virginia, United States

Public forecast

Using degrees Fahrenheit for public forecast. Weather courtesy of forecast.io.

METAR (pilot weather report)

Closest report is New Kent County Airport, 11.8 nm (21.9 km) S. Retrieved UTC (0 seconds ago):

TAF (pilot weather forecast)

Closest forecast is Richmond International Airport, 15.8 nm (29.2 km) SW. Retrieved 2019/01/17 06:22 UTC (2 hours ago):

TAF KRIC 170520Z 1706/1806 00000KT P6SM SCT050 FM171400 05004KT P6SM BKN080 FM172200 13004KT P6SM OVC060 FM180200 16004KT 6SM -RA OVC060 FM180500 17005KT 6SM -RA OVC030